createdAt,value
2023-03-21T00:04:07.029Z,10.00
2023-03-21T00:09:08.661Z,10.00
2023-03-21T00:14:15.065Z,9.90
2023-03-21T00:19:20.818Z,10.00
2023-03-21T00:24:22.864Z,9.90
2023-03-21T00:29:24.525Z,9.90
2023-03-21T00:34:36.695Z,10.00
2023-03-21T00:39:49.104Z,9.80
2023-03-21T00:44:50.781Z,9.80
2023-03-21T00:49:52.368Z,9.80
2023-03-21T00:54:54.038Z,9.80
2023-03-21T00:59:58.045Z,9.80
2023-03-21T01:04:59.649Z,9.80
2023-03-21T01:10:01.253Z,9.80
2023-03-21T01:15:02.974Z,9.80
2023-03-21T01:20:06.505Z,9.80
2023-03-21T01:25:21.862Z,9.70
2023-03-21T01:30:25.002Z,9.70
2023-03-21T01:35:30.021Z,9.80
2023-03-21T01:40:33.702Z,9.80
2023-03-21T01:45:54.167Z,9.90
2023-03-21T01:50:56.293Z,9.70
2023-03-21T01:56:01.038Z,9.70
2023-03-21T02:01:03.200Z,9.70
2023-03-21T02:06:08.462Z,9.70
2023-03-21T02:11:10.488Z,9.70
2023-03-21T02:16:26.670Z,9.70
2023-03-21T02:21:34.306Z,9.70
2023-03-21T02:27:03.523Z,9.70
2023-03-21T02:32:31.559Z,9.60
2023-03-21T02:37:38.863Z,9.60
2023-03-21T02:42:59.278Z,9.60
2023-03-21T02:48:35.288Z,9.50
2023-03-21T02:53:44.998Z,9.50
2023-03-21T02:58:47.457Z,9.50
2023-03-21T03:03:49.061Z,9.50
2023-03-21T03:09:02.545Z,9.60
2023-03-21T03:14:39.968Z,9.50
2023-03-21T03:19:50.669Z,9.50
2023-03-21T03:24:59.525Z,9.40
2023-03-21T03:30:04.013Z,9.40
2023-03-21T03:35:06.912Z,9.40
2023-03-21T03:40:14.253Z,9.30
2023-03-21T03:45:16.330Z,9.30
2023-03-21T03:50:21.822Z,9.30
2023-03-21T03:55:23.979Z,9.20
2023-03-21T04:00:27.133Z,9.30
2023-03-21T04:05:28.727Z,9.20
2023-03-21T04:10:30.481Z,9.30
2023-03-21T04:15:32.077Z,9.10
2023-03-21T04:20:37.213Z,9.20
2023-03-21T04:25:47.617Z,9.20
2023-03-21T04:31:03.482Z,9.20
2023-03-21T04:36:09.393Z,9.20
2023-03-21T04:41:11.123Z,9.10
2023-03-21T04:46:12.997Z,9.10
2023-03-21T04:51:15.474Z,9.10
2023-03-21T04:56:17.061Z,9.20
2023-03-21T05:01:20.743Z,9.10
2023-03-21T05:06:22.457Z,9.10
2023-03-21T05:11:24.109Z,9.10
2023-03-21T05:16:27.102Z,9.10
2023-03-21T05:21:29.538Z,9.20
2023-03-21T05:26:31.263Z,9.10
2023-03-21T05:31:33.130Z,9.20
2023-03-21T05:36:36.098Z,9.10
2023-03-21T05:41:37.670Z,9.10
2023-03-21T05:46:39.269Z,9.10
2023-03-21T05:51:41.166Z,9.10
2023-03-21T05:56:42.712Z,9.20
2023-03-21T06:01:44.293Z,8.90
2023-03-21T06:06:45.975Z,9.10
2023-03-21T06:11:48.553Z,9.10
2023-03-21T06:16:50.583Z,9.10
2023-03-21T06:21:52.192Z,9.10
2023-03-21T06:26:53.783Z,9.20
2023-03-21T06:31:55.326Z,9.20
2023-03-21T06:36:56.937Z,9.20
2023-03-21T06:41:58.805Z,9.20
2023-03-21T06:47:00.465Z,9.20
2023-03-21T06:52:02.162Z,9.30
2023-03-21T06:57:03.732Z,9.30
2023-03-21T07:02:05.572Z,9.40
2023-03-21T07:07:07.200Z,9.40
2023-03-21T07:12:08.914Z,9.50
2023-03-21T07:17:11.157Z,9.60
2023-03-21T07:22:12.777Z,9.60
2023-03-21T07:27:15.384Z,9.60
2023-03-21T07:32:17.025Z,9.80
2023-03-21T07:37:18.717Z,9.80
2023-03-21T07:42:23.116Z,9.90
2023-03-21T07:47:24.752Z,9.90
2023-03-21T07:52:26.567Z,9.80
2023-03-21T07:57:28.167Z,9.70
2023-03-21T08:02:29.716Z,9.70
2023-03-21T08:07:32.459Z,9.60
2023-03-21T08:12:34.104Z,9.50
2023-03-21T08:17:38.046Z,9.40
2023-03-21T08:22:39.798Z,9.30
2023-03-21T08:27:42.339Z,9.30
2023-03-21T08:32:44.197Z,9.20
2023-03-21T08:37:45.974Z,9.30
2023-03-21T08:42:47.736Z,9.10
2023-03-21T08:47:49.371Z,9.20
2023-03-21T08:52:51.076Z,9.10
2023-03-21T08:57:52.717Z,9.20
2023-03-21T09:02:54.554Z,9.20
2023-03-21T09:07:56.521Z,9.20
2023-03-21T09:12:58.138Z,9.10
2023-03-21T09:18:13.336Z,9.20
2023-03-21T09:23:15.289Z,9.20
2023-03-21T09:28:17.076Z,9.10
2023-03-21T09:33:19.264Z,9.10
2023-03-21T09:38:21.401Z,9.10
2023-03-21T09:43:23.043Z,9.10
2023-03-21T09:48:54.337Z,9.10
2023-03-21T09:54:00.560Z,9.10
2023-03-21T09:59:03.050Z,9.10
2023-03-21T10:04:06.575Z,9.10
2023-03-21T10:09:13.427Z,9.10
2023-03-21T10:14:20.854Z,9.10
2023-03-21T10:19:23.429Z,9.20
2023-03-21T10:24:27.089Z,9.20
2023-03-21T10:29:32.502Z,9.30
2023-03-21T10:34:40.807Z,9.30
2023-03-21T10:39:44.001Z,9.50
2023-03-21T10:44:47.683Z,9.50
2023-03-21T10:50:06.499Z,9.40
2023-03-21T10:55:17.800Z,9.40
2023-03-21T11:00:21.721Z,9.50
2023-03-21T11:05:23.306Z,9.60
2023-03-21T11:10:30.106Z,9.70
2023-03-21T11:15:41.254Z,9.50
2023-03-21T11:20:49.659Z,9.60
2023-03-21T11:25:51.358Z,9.60
2023-03-21T11:30:54.831Z,9.60
2023-03-21T11:35:59.728Z,9.50
2023-03-21T11:41:02.096Z,9.50
2023-03-21T11:46:06.955Z,9.40
2023-03-21T11:51:27.212Z,9.50
2023-03-21T11:56:49.410Z,9.50
2023-03-21T12:02:07.975Z,9.50
2023-03-21T12:07:18.813Z,9.40
2023-03-21T12:12:38.840Z,9.40
2023-03-21T12:17:50.887Z,9.50
2023-03-21T12:22:57.828Z,9.60
2023-03-21T12:28:08.377Z,9.60
2023-03-21T12:33:19.570Z,9.60
2023-03-21T12:38:24.116Z,9.60
2023-03-21T12:43:28.934Z,9.50
2023-03-21T12:48:40.591Z,9.60
2023-03-21T12:53:47.709Z,9.70
2023-03-21T12:58:52.286Z,9.70
2023-03-21T13:04:20.905Z,9.70
2023-03-21T13:09:37.736Z,9.80
2023-03-21T13:14:47.199Z,9.90
2023-03-21T13:20:01.381Z,9.90
2023-03-21T13:25:07.549Z,10.00
2023-03-21T13:30:15.573Z,10.10
2023-03-21T13:35:29.934Z,10.20
2023-03-21T13:40:37.444Z,10.30
2023-03-21T13:45:47.270Z,10.50
2023-03-21T13:50:53.336Z,10.50
2023-03-21T13:56:00.205Z,10.60
2023-03-21T14:01:23.492Z,10.70
2023-03-21T14:06:30.940Z,10.80
2023-03-21T14:11:33.446Z,10.70
2023-03-21T14:16:35.290Z,10.70
2023-03-21T14:21:36.958Z,10.90
2023-03-21T14:26:43.283Z,10.80
2023-03-21T14:31:45.788Z,10.90
2023-03-21T14:36:56.934Z,10.90
2023-03-21T14:42:02.552Z,11.00
2023-03-21T14:47:05.795Z,11.00
2023-03-21T14:52:13.262Z,11.00
2023-03-21T14:57:17.804Z,11.00
2023-03-21T15:02:27.907Z,11.10
2023-03-21T15:07:32.226Z,11.20
2023-03-21T15:12:34.099Z,11.20
2023-03-21T15:17:35.748Z,11.20
2023-03-21T15:22:39.497Z,11.30
2023-03-21T15:27:42.905Z,11.40
2023-03-21T15:32:46.131Z,11.40
2023-03-21T15:37:53.501Z,11.60
2023-03-21T15:43:05.364Z,11.70
2023-03-21T15:48:08.986Z,11.90
2023-03-21T15:53:17.887Z,11.90
2023-03-21T15:58:21.141Z,11.90
2023-03-21T16:03:24.748Z,11.90
2023-03-21T16:08:27.337Z,12.00
2023-03-21T16:13:28.903Z,12.00
2023-03-21T16:18:31.852Z,12.00
2023-03-21T16:23:33.426Z,12.00
2023-03-21T16:28:35.085Z,12.20
2023-03-21T16:33:36.832Z,12.20
2023-03-21T16:38:38.410Z,12.30
2023-03-21T16:43:43.139Z,12.30
2023-03-21T16:48:46.007Z,12.20
2023-03-21T16:53:47.991Z,12.20
2023-03-21T16:58:49.589Z,12.30
2023-03-21T17:03:51.772Z,12.10
2023-03-21T17:08:54.299Z,12.10
2023-03-21T17:13:56.142Z,12.00
2023-03-21T17:18:57.942Z,11.90
2023-03-21T17:23:59.582Z,11.70
2023-03-21T17:29:01.134Z,11.50
2023-03-21T17:34:04.396Z,11.50
2023-03-21T17:39:07.284Z,11.40
2023-03-21T17:44:08.881Z,11.30
2023-03-21T17:49:12.750Z,11.30
2023-03-21T17:54:14.464Z,11.20
2023-03-21T17:59:16.186Z,11.20
2023-03-21T18:04:17.854Z,11.30
2023-03-21T18:09:21.709Z,11.20
2023-03-21T18:14:27.902Z,11.20
2023-03-21T18:19:31.137Z,11.20
2023-03-21T18:24:32.833Z,11.10
2023-03-21T18:35:00.351Z,11.10
2023-03-21T18:40:01.984Z,11.10
2023-03-21T18:45:04.135Z,11.10
2023-03-21T18:50:14.236Z,11.10
2023-03-21T18:55:16.549Z,11.20
2023-03-21T19:00:21.752Z,11.10
2023-03-21T19:05:24.471Z,11.20
2023-03-21T19:10:26.138Z,11.20
2023-03-21T19:15:28.004Z,11.20
2023-03-21T19:20:29.628Z,11.10
2023-03-21T19:25:31.305Z,11.10
2023-03-21T19:30:34.191Z,10.90
2023-03-21T19:35:40.854Z,10.70
2023-03-21T19:40:43.774Z,10.70
2023-03-21T19:45:48.349Z,10.70
2023-03-21T19:51:24.382Z,10.70
2023-03-21T19:56:21.506Z,10.60
2023-03-21T20:01:24.611Z,10.40
2023-03-21T20:06:27.236Z,10.40
2023-03-21T20:11:28.836Z,10.30
2023-03-21T20:16:34.981Z,10.30
2023-03-21T20:21:47.666Z,10.20
2023-03-21T20:26:53.724Z,10.20
2023-03-21T20:31:55.511Z,10.20
2023-03-21T20:36:58.351Z,10.10
2023-03-21T20:42:00.222Z,10.20
2023-03-21T20:47:04.748Z,10.10
2023-03-21T20:57:28.411Z,10.00
2023-03-21T21:02:29.942Z,10.00
2023-03-21T21:07:31.444Z,10.00
2023-03-21T21:12:33.069Z,10.10
2023-03-21T21:18:02.049Z,10.00
2023-03-21T21:23:00.026Z,10.00
2023-03-21T21:28:02.937Z,9.90
2023-03-21T21:33:05.321Z,9.90
2023-03-21T21:38:06.996Z,9.80
2023-03-21T21:43:08.736Z,9.70
2023-03-21T21:48:11.527Z,9.80
2023-03-21T21:53:13.670Z,9.70
2023-03-21T21:58:18.563Z,9.70
2023-03-21T22:03:22.233Z,9.50
2023-03-21T22:08:23.912Z,9.40
2023-03-21T22:13:25.854Z,9.20
2023-03-21T22:18:27.465Z,9.10
2023-03-21T22:23:29.231Z,9.10
2023-03-21T22:28:30.800Z,9.30
2023-03-21T22:33:33.499Z,9.40
2023-03-21T22:38:37.144Z,9.30
2023-03-21T22:43:38.760Z,9.20
2023-03-21T22:48:40.342Z,9.00
2023-03-21T22:53:41.939Z,8.90
2023-03-21T22:58:43.598Z,8.80
2023-03-21T23:03:45.288Z,9.00
2023-03-21T23:08:46.892Z,9.00
2023-03-21T23:13:58.710Z,9.20
2023-03-21T23:19:08.307Z,9.40
2023-03-21T23:24:10.605Z,9.50
2023-03-21T23:29:12.257Z,9.40
2023-03-21T23:34:14.307Z,9.70
2023-03-21T23:39:18.464Z,9.50
2023-03-21T23:44:20.193Z,9.70
2023-03-21T23:49:21.828Z,9.60
2023-03-21T23:54:23.388Z,9.60
2023-03-21T23:59:25.156Z,9.60
